Time;durP1;ratioP1;P1;durP2;ratioP2;P2;SDS_P1;SDS_P2;PMS_P1;PMS_P2;Temp;Humidity;BMP_temperature;BMP_pressure;BME280_temperature;BME280_humidity;BME280_pressure;Samples;Min_cycle;Max_cycle;Signal;HPM_P1;HPM_P2
2022/03/31 00:00:32;;;;;;;14.63;8.90;;;10.30;96.20;;;;;;5037871;28;20477;-69
2022/03/31 00:02:59;;;;;;;13.97;9.23;;;10.30;96.20;;;;;;5018983;28;20813;-69
2022/03/31 00:05:25;;;;;;;20.80;10.57;;;10.30;96.20;;;;;;5036679;28;21017;-69
2022/03/31 00:07:53;;;;;;;16.67;10.10;;;10.30;96.10;;;;;;5039053;28;20451;-69
2022/03/31 00:10:30;;;;;;;19.67;10.70;;;10.30;96.60;;;;;;5045149;28;20462;-67
2022/03/31 00:12:58;;;;;;;17.37;9.87;;;10.30;96.30;;;;;;5039329;28;20462;-68
2022/03/31 00:15:26;;;;;;;14.27;9.10;;;10.30;96.30;;;;;;5041130;28;20853;-68
2022/03/31 00:17:53;;;;;;;17.13;10.07;;;10.30;96.30;;;;;;5025564;28;20448;-68
2022/03/31 00:20:18;;;;;;;17.60;10.40;;;10.20;96.20;;;;;;5038943;28;20498;-69
2022/03/31 00:22:44;;;;;;;18.00;9.90;;;10.30;96.20;;;;;;5052590;28;20446;-69
2022/03/31 00:25:13;;;;;;;15.13;9.03;;;10.20;96.20;;;;;;5040500;28;20224;-70
2022/03/31 00:27:40;;;;;;;15.30;10.20;;;10.20;96.10;;;;;;5043552;28;20471;-70
2022/03/31 00:30:10;;;;;;;18.53;10.30;;;10.20;96.20;;;;;;5027696;28;20475;-69
2022/03/31 00:32:36;;;;;;;15.27;9.30;;;10.20;96.30;;;;;;5031763;28;20495;-69
2022/03/31 00:35:02;;;;;;;16.30;9.70;;;10.10;96.30;;;;;;5030694;28;20494;-70
2022/03/31 00:37:28;;;;;;;19.60;11.17;;;10.10;96.40;;;;;;5048295;28;20468;-69
2022/03/31 00:39:55;;;;;;;18.10;9.93;;;10.10;96.50;;;;;;5035064;28;20470;-70
2022/03/31 00:42:21;;;;;;;18.53;11.13;;;10.10;96.40;;;;;;5036432;28;20303;-69
2022/03/31 00:44:48;;;;;;;17.20;9.50;;;10.10;96.50;;;;;;5047532;28;20465;-69
2022/03/31 00:47:13;;;;;;;14.93;9.87;;;10.00;96.60;;;;;;5033625;28;20472;-68
2022/03/31 00:49:39;;;;;;;18.17;10.53;;;10.00;96.50;;;;;;5037107;28;20477;-69
2022/03/31 00:52:05;;;;;;;17.63;9.50;;;10.00;96.60;;;;;;5030226;28;20300;-69
2022/03/31 00:54:32;;;;;;;16.70;10.23;;;10.00;96.70;;;;;;5028004;28;20711;-69
2022/03/31 00:57:00;;;;;;;16.00;9.27;;;9.90;97.40;;;;;;5025647;28;20460;-69
2022/03/31 00:59:26;;;;;;;18.20;10.33;;;10.00;96.90;;;;;;5024923;28;20455;-69
2022/03/31 01:01:53;;;;;;;18.53;11.53;;;9.90;97.50;;;;;;5028482;28;20491;-70
2022/03/31 01:04:19;;;;;;;18.67;10.00;;;9.90;97.40;;;;;;5018046;28;20828;-68
2022/03/31 01:06:45;;;;;;;20.70;11.63;;;9.90;97.60;;;;;;5036169;28;20467;-69
2022/03/31 01:09:12;;;;;;;14.27;9.40;;;9.90;97.60;;;;;;5030905;28;20307;-69
2022/03/31 01:11:39;;;;;;;13.13;8.50;;;9.90;97.50;;;;;;5043655;28;20295;-70
2022/03/31 01:14:06;;;;;;;16.10;9.83;;;9.80;97.50;;;;;;5031801;28;20538;-70
2022/03/31 01:16:33;;;;;;;17.23;10.10;;;9.80;97.50;;;;;;5019686;28;20524;-67
2022/03/31 01:19:07;;;;;;;16.53;9.90;;;9.80;97.60;;;;;;5020344;28;20445;-69
2022/03/31 01:21:41;;;;;;;14.90;10.10;;;9.80;97.60;;;;;;5024076;28;20462;-69
2022/03/31 01:24:08;;;;;;;12.90;8.63;;;9.80;97.70;;;;;;5043026;28;20538;-70
2022/03/31 01:26:35;;;;;;;14.37;9.20;;;9.80;97.70;;;;;;5047181;28;20470;-69
2022/03/31 01:29:01;;;;;;;13.80;9.23;;;9.70;97.60;;;;;;5038208;28;20542;-69
2022/03/31 01:31:27;;;;;;;12.90;9.40;;;9.70;97.70;;;;;;5026491;28;20534;-69
2022/03/31 01:33:53;;;;;;;13.97;9.67;;;9.70;97.80;;;;;;5038348;28;20969;-69
2022/03/31 01:36:19;;;;;;;14.93;8.93;;;9.70;97.80;;;;;;5044837;28;20707;-68
2022/03/31 01:38:46;;;;;;;19.80;10.27;;;9.70;97.80;;;;;;5029853;28;20526;-69
2022/03/31 01:41:11;;;;;;;13.90;8.50;;;9.60;97.90;;;;;;5046512;28;20497;-67
2022/03/31 01:43:37;;;;;;;17.57;9.70;;;9.60;97.80;;;;;;5036215;28;20492;-68
2022/03/31 01:46:03;;;;;;;13.10;9.00;;;9.60;98.00;;;;;;5019053;28;20240;-68
2022/03/31 01:48:30;;;;;;;16.13;8.10;;;9.60;97.90;;;;;;5036683;28;20220;-69
2022/03/31 01:50:57;;;;;;;15.87;9.30;;;9.50;98.00;;;;;;5016117;28;20454;-69
2022/03/31 01:53:22;;;;;;;15.67;9.40;;;9.50;98.10;;;;;;5006914;28;20452;-70
2022/03/31 01:55:48;;;;;;;15.03;9.80;;;9.50;98.10;;;;;;5005970;28;21082;-68
2022/03/31 01:58:14;;;;;;;17.57;10.03;;;9.50;98.20;;;;;;5029467;28;20227;-69
2022/03/31 02:00:39;;;;;;;14.07;9.77;;;9.40;98.20;;;;;;5035629;28;20212;-70
2022/03/31 02:03:05;;;;;;;15.07;9.33;;;9.40;98.20;;;;;;5046471;28;20220;-69
2022/03/31 02:05:31;;;;;;;13.30;8.90;;;9.40;98.20;;;;;;5042244;28;20240;-67
2022/03/31 02:07:57;;;;;;;14.50;8.47;;;9.30;98.30;;;;;;5028711;28;20224;-69
2022/03/31 02:10:26;;;;;;;13.50;9.17;;;9.30;98.40;;;;;;5035583;28;20272;-68
2022/03/31 02:12:53;;;;;;;16.13;9.70;;;9.20;98.50;;;;;;5038292;28;20879;-69
2022/03/31 02:15:22;;;;;;;17.50;10.40;;;9.20;98.50;;;;;;5033429;28;20823;-67
2022/03/31 02:17:49;;;;;;;17.40;9.80;;;9.20;98.70;;;;;;5043345;28;20451;-68
2022/03/31 02:20:15;;;;;;;16.10;8.90;;;9.10;98.60;;;;;;5043378;28;20440;-69
2022/03/31 02:22:41;;;;;;;13.87;8.37;;;9.10;98.60;;;;;;5039262;28;20518;-68
2022/03/31 02:25:08;;;;;;;18.17;9.93;;;9.10;98.60;;;;;;5020932;28;20489;-70
2022/03/31 02:27:38;;;;;;;17.17;9.97;;;9.10;98.70;;;;;;5034526;28;20471;-68
2022/03/31 02:30:06;;;;;;;16.50;8.93;;;9.10;98.70;;;;;;5032955;28;20459;-70
2022/03/31 02:32:32;;;;;;;15.90;9.97;;;9.10;98.70;;;;;;5031058;28;20526;-69
2022/03/31 02:34:58;;;;;;;14.30;7.73;;;9.10;98.60;;;;;;5032322;28;20935;-69
2022/03/31 02:37:24;;;;;;;12.80;9.10;;;9.10;98.60;;;;;;5031404;28;20273;-68
2022/03/31 02:39:50;;;;;;;16.40;8.47;;;9.00;98.60;;;;;;5032174;28;20603;-69
2022/03/31 02:42:16;;;;;;;12.87;9.17;;;9.00;98.60;;;;;;5036031;28;20462;-69
2022/03/31 02:44:42;;;;;;;16.53;8.73;;;8.90;98.60;;;;;;5029521;28;20248;-70
2022/03/31 02:47:09;;;;;;;14.93;8.90;;;8.90;98.60;;;;;;5062160;28;20523;-68
2022/03/31 02:49:35;;;;;;;16.20;9.40;;;8.80;98.60;;;;;;5047718;28;20550;-69
2022/03/31 02:52:01;;;;;;;13.67;8.57;;;8.90;98.60;;;;;;5038634;28;20837;-70
2022/03/31 02:57:12;;;;;;;15.07;8.87;;;8.80;98.70;;;;;;5011369;28;20471;-68
2022/03/31 02:59:38;;;;;;;14.57;8.93;;;8.80;99.00;;;;;;5047378;28;20478;-68
2022/03/31 03:02:04;;;;;;;12.47;8.77;;;8.80;98.60;;;;;;5034928;28;20223;-69
2022/03/31 03:04:30;;;;;;;16.77;9.93;;;8.80;98.60;;;;;;5028246;28;20454;-67
2022/03/31 03:06:56;;;;;;;15.07;8.70;;;8.60;98.50;;;;;;5038288;28;20469;-70
2022/03/31 03:09:22;;;;;;;12.90;8.30;;;8.60;98.60;;;;;;5031229;28;20216;-70
2022/03/31 03:11:48;;;;;;;14.30;8.67;;;8.60;98.60;;;;;;5032326;28;20232;-69
2022/03/31 03:14:14;;;;;;;15.57;8.37;;;8.60;98.60;;;;;;5027772;28;20234;-70
2022/03/31 03:16:40;;;;;;;12.83;7.50;;;8.60;98.70;;;;;;5026823;28;20451;-70
2022/03/31 03:19:07;;;;;;;15.27;8.53;;;8.60;98.50;;;;;;5030772;28;20852;-68
2022/03/31 03:21:33;;;;;;;11.97;8.23;;;8.60;98.50;;;;;;5029040;28;20451;-70
2022/03/31 03:23:58;;;;;;;13.83;6.93;;;8.60;98.50;;;;;;5027168;28;20470;-68
2022/03/31 03:26:24;;;;;;;12.23;7.50;;;8.60;98.40;;;;;;5029690;28;20470;-70
2022/03/31 03:28:50;;;;;;;11.27;7.43;;;8.60;98.40;;;;;;5030398;28;20213;-68
2022/03/31 03:31:15;;;;;;;18.20;8.00;;;8.50;98.30;;;;;;5030328;28;20212;-70
2022/03/31 03:33:41;;;;;;;13.53;7.60;;;8.50;98.30;;;;;;5030409;28;20785;-68
2022/03/31 03:36:10;;;;;;;11.30;7.83;;;8.50;98.30;;;;;;5029100;28;20661;-68
2022/03/31 03:38:36;;;;;;;13.40;7.43;;;8.60;98.20;;;;;;5029366;28;20555;-67
2022/03/31 03:41:02;;;;;;;14.13;7.70;;;8.50;98.20;;;;;;5028789;28;20534;-69
2022/03/31 03:43:28;;;;;;;16.30;8.33;;;8.50;98.30;;;;;;5025432;28;20216;-69
2022/03/31 03:45:54;;;;;;;13.77;7.40;;;8.50;98.10;;;;;;5025150;28;20529;-68
2022/03/31 03:48:22;;;;;;;13.97;7.70;;;8.40;98.10;;;;;;5005619;28;20212;-70
2022/03/31 03:50:48;;;;;;;17.20;8.10;;;8.50;98.10;;;;;;5028015;28;20454;-68
2022/03/31 03:53:14;;;;;;;11.77;7.57;;;8.50;98.20;;;;;;5023547;28;20464;-70
2022/03/31 03:55:40;;;;;;;19.30;8.60;;;8.50;98.00;;;;;;5032091;28;20958;-70
2022/03/31 03:58:05;;;;;;;14.07;7.97;;;8.50;98.00;;;;;;5030511;28;20860;-70
2022/03/31 04:00:31;;;;;;;14.70;8.37;;;8.50;98.00;;;;;;5027474;28;20752;-69
2022/03/31 04:02:57;;;;;;;14.97;8.60;;;8.40;98.00;;;;;;5027686;28;20216;-69
2022/03/31 04:05:23;;;;;;;16.70;7.80;;;8.40;98.00;;;;;;5026324;28;20605;-70
2022/03/31 04:07:49;;;;;;;14.17;8.73;;;8.30;98.00;;;;;;5028493;28;20478;-69
2022/03/31 04:10:15;;;;;;;11.80;8.00;;;8.20;98.00;;;;;;5044743;28;20460;-70
2022/03/31 04:12:41;;;;;;;12.97;8.60;;;8.20;98.10;;;;;;5027319;28;20212;-69
2022/03/31 04:15:07;;;;;;;15.87;8.57;;;8.20;98.20;;;;;;5031285;28;20572;-69
2022/03/31 04:17:34;;;;;;;16.40;8.20;;;8.20;98.10;;;;;;5025890;28;20220;-69
2022/03/31 04:20:00;;;;;;;11.80;7.53;;;8.20;98.00;;;;;;5028316;28;20463;-71
2022/03/31 04:22:26;;;;;;;14.40;8.03;;;8.20;98.00;;;;;;5027606;28;20470;-69
2022/03/31 04:24:52;;;;;;;13.03;7.93;;;8.20;98.00;;;;;;5028291;28;20289;-70
2022/03/31 04:27:18;;;;;;;14.47;9.00;;;8.10;97.80;;;;;;5029240;28;20849;-70
2022/03/31 04:29:43;;;;;;;14.40;8.33;;;8.20;98.10;;;;;;5030780;28;20219;-69
2022/03/31 04:32:10;;;;;;;14.90;8.13;;;8.20;98.00;;;;;;5043785;28;20229;-70
2022/03/31 04:34:35;;;;;;;19.90;10.60;;;8.20;98.10;;;;;;5029120;28;20220;-69
2022/03/31 04:37:01;;;;;;;18.83;9.63;;;8.20;98.00;;;;;;5030403;28;20456;-69
2022/03/31 04:39:27;;;;;;;15.17;8.20;;;8.20;98.00;;;;;;5028322;28;20598;-69
2022/03/31 04:41:53;;;;;;;15.70;7.93;;;8.20;98.00;;;;;;5024938;28;20456;-68
2022/03/31 04:44:19;;;;;;;15.30;8.10;;;8.10;98.00;;;;;;5026492;28;20293;-69
2022/03/31 04:46:46;;;;;;;14.40;7.90;;;8.10;98.10;;;;;;5029143;28;20231;-69
2022/03/31 04:49:12;;;;;;;17.00;8.83;;;8.00;98.10;;;;;;5028221;28;20517;-68
2022/03/31 04:51:38;;;;;;;19.33;9.63;;;8.00;98.10;;;;;;5031025;28;20467;-69
2022/03/31 04:54:04;;;;;;;19.70;9.17;;;7.90;98.10;;;;;;5025811;28;20220;-68
2022/03/31 04:56:29;;;;;;;13.57;7.60;;;7.80;98.20;;;;;;5027779;28;20467;-68
2022/03/31 04:58:55;;;;;;;11.80;7.30;;;7.80;98.30;;;;;;5042898;28;20228;-69
2022/03/31 05:01:23;;;;;;;19.90;8.50;;;7.80;98.30;;;;;;5028353;28;20284;-70
2022/03/31 05:03:49;;;;;;;14.03;8.50;;;7.80;98.40;;;;;;5027403;28;20471;-68
2022/03/31 05:06:15;;;;;;;17.77;9.50;;;7.70;98.30;;;;;;5028616;28;20474;-69
2022/03/31 05:08:42;;;;;;;16.47;8.37;;;7.70;98.40;;;;;;5031760;28;20454;-67
2022/03/31 05:11:07;;;;;;;14.67;8.63;;;7.60;98.40;;;;;;5023395;28;20456;-69
2022/03/31 05:13:33;;;;;;;14.23;7.83;;;7.60;98.40;;;;;;5035455;28;20449;-68
2022/03/31 05:15:59;;;;;;;10.53;7.27;;;7.60;98.50;;;;;;5024550;28;20363;-68
2022/03/31 05:18:25;;;;;;;15.67;8.40;;;7.60;98.50;;;;;;5037175;28;20609;-70
2022/03/31 05:20:50;;;;;;;14.27;8.87;;;7.50;98.60;;;;;;5049162;28;20213;-69
2022/03/31 05:23:16;;;;;;;15.60;9.47;;;7.50;98.60;;;;;;5034890;28;20243;-69
2022/03/31 05:25:42;;;;;;;17.97;9.07;;;7.50;98.80;;;;;;5027702;28;20229;-70
2022/03/31 05:28:09;;;;;;;15.40;8.20;;;7.40;98.80;;;;;;5022711;28;20219;-68
2022/03/31 05:30:35;;;;;;;15.10;9.50;;;7.40;98.90;;;;;;5015123;28;20266;-70
2022/03/31 05:33:01;;;;;;;15.63;8.90;;;7.40;99.10;;;;;;5032686;28;20447;-70
2022/03/31 05:35:27;;;;;;;15.27;9.57;;;7.40;99.10;;;;;;5026191;28;21025;-69
2022/03/31 05:37:54;;;;;;;21.63;10.83;;;7.40;99.00;;;;;;5047000;28;20466;-70
2022/03/31 05:40:19;;;;;;;21.37;9.10;;;7.30;99.10;;;;;;5022308;28;20446;-70
2022/03/31 05:42:45;;;;;;;20.30;10.13;;;7.30;99.30;;;;;;5030395;28;20494;-68
2022/03/31 05:45:12;;;;;;;15.87;8.73;;;7.30;99.40;;;;;;5026695;28;20312;-68
2022/03/31 05:47:40;;;;;;;20.57;9.27;;;7.30;99.40;;;;;;5032465;28;20469;-69
2022/03/31 05:50:08;;;;;;;19.87;8.83;;;7.30;99.50;;;;;;5028830;28;20498;-69
2022/03/31 05:52:38;;;;;;;23.80;9.30;;;7.30;99.60;;;;;;5038432;28;20469;-71
2022/03/31 05:55:08;;;;;;;14.10;7.47;;;7.30;99.70;;;;;;5024404;28;20459;-69
2022/03/31 05:57:35;;;;;;;14.37;8.67;;;7.30;99.90;;;;;;5039877;28;20977;-70
2022/03/31 06:00:04;;;;;;;17.03;9.00;;;7.30;99.90;;;;;;5029899;28;20965;-71
2022/03/31 06:02:37;;;;;;;23.67;10.70;;;7.30;99.80;;;;;;5026626;28;20459;-71
2022/03/31 06:05:03;;;;;;;12.60;8.00;;;7.30;99.70;;;;;;5037779;28;20459;-72
2022/03/31 06:07:29;;;;;;;18.27;8.30;;;7.30;99.70;;;;;;5030465;28;20820;-70
2022/03/31 06:09:54;;;;;;;14.77;9.23;;;7.30;99.90;;;;;;5031212;28;20448;-70
2022/03/31 06:12:20;;;;;;;13.30;8.00;;;7.30;99.90;;;;;;5031526;28;20715;-70
2022/03/31 06:14:46;;;;;;;16.27;8.73;;;7.30;99.80;;;;;;5028438;28;20730;-70
2022/03/31 06:17:12;;;;;;;15.87;7.90;;;7.20;99.90;;;;;;5028736;28;20604;-68
2022/03/31 06:19:38;;;;;;;15.03;8.70;;;7.30;99.90;;;;;;5034484;28;20221;-71
2022/03/31 06:22:04;;;;;;;16.00;9.00;;;7.30;99.90;;;;;;5034513;28;20546;-70
2022/03/31 06:24:30;;;;;;;16.57;8.83;;;7.20;99.90;;;;;;5035334;28;20235;-70
2022/03/31 06:27:00;;;;;;;19.13;8.90;;;7.20;99.90;;;;;;5017193;28;20463;-69
2022/03/31 06:29:26;;;;;;;14.17;8.03;;;7.20;99.90;;;;;;5024403;28;20249;-70
2022/03/31 06:31:53;;;;;;;14.50;8.73;;;7.20;99.90;;;;;;5024880;28;20479;-70
2022/03/31 06:34:20;;;;;;;15.73;8.17;;;7.20;99.90;;;;;;5031916;28;20516;-69
2022/03/31 06:36:46;;;;;;;17.33;8.60;;;7.20;99.90;;;;;;5028842;28;20529;-69
2022/03/31 06:39:13;;;;;;;16.53;8.77;;;7.20;99.90;;;;;;5029724;28;20454;-70
2022/03/31 06:41:39;;;;;;;14.57;8.70;;;7.10;99.90;;;;;;5036172;28;20232;-71
2022/03/31 06:44:12;;;;;;;14.37;7.93;;;7.10;99.90;;;;;;5031612;28;20462;-70
2022/03/31 06:46:42;;;;;;;16.90;8.47;;;7.10;99.90;;;;;;5028560;28;20538;-70
2022/03/31 06:49:08;;;;;;;14.07;7.13;;;7.20;99.90;;;;;;5036277;28;20446;-70
2022/03/31 06:51:34;;;;;;;13.80;8.40;;;7.20;99.90;;;;;;5017204;28;20840;-71
2022/03/31 06:54:00;;;;;;;16.67;9.07;;;7.10;99.90;;;;;;5028537;28;20469;-69
2022/03/31 06:56:29;;;;;;;18.17;10.07;;;7.10;99.90;;;;;;5041650;28;20223;-69
2022/03/31 06:58:56;;;;;;;16.03;8.20;;;7.10;99.90;;;;;;5030238;28;20224;-70
2022/03/31 07:01:22;;;;;;;15.57;9.90;;;7.10;99.90;;;;;;5029214;28;20474;-70
2022/03/31 07:03:49;;;;;;;13.97;9.00;;;7.00;99.90;;;;;;5019905;28;20452;-70
2022/03/31 07:06:15;;;;;;;14.50;8.57;;;7.00;99.90;;;;;;5031675;28;20472;-70
2022/03/31 07:08:41;;;;;;;13.00;8.60;;;7.00;99.90;;;;;;5026964;28;20462;-70
2022/03/31 07:11:07;;;;;;;16.67;9.63;;;7.00;99.90;;;;;;5021025;28;20826;-68
2022/03/31 07:13:33;;;;;;;19.17;8.80;;;7.00;99.90;;;;;;5021597;28;20228;-71
2022/03/31 07:15:59;;;;;;;15.70;9.33;;;7.00;99.90;;;;;;5009040;28;20457;-70
2022/03/31 07:18:24;;;;;;;16.87;8.53;;;7.00;99.90;;;;;;5024467;28;20200;-70
2022/03/31 07:20:50;;;;;;;16.90;9.33;;;7.00;99.90;;;;;;5027169;28;20625;-71
2022/03/31 07:23:25;;;;;;;19.33;9.07;;;7.00;99.90;;;;;;5030879;28;20224;-68
2022/03/31 07:25:56;;;;;;;15.10;8.13;;;7.00;99.90;;;;;;5025787;28;20328;-69
2022/03/31 07:28:23;;;;;;;18.27;9.33;;;7.00;99.90;;;;;;5027580;28;20465;-70
2022/03/31 07:30:49;;;;;;;14.17;8.23;;;7.00;99.90;;;;;;5028852;28;20462;-69
2022/03/31 07:33:15;;;;;;;13.43;8.67;;;7.10;99.90;;;;;;5017963;28;20477;-70
2022/03/31 07:35:42;;;;;;;15.90;9.43;;;7.10;99.90;;;;;;5034744;28;20462;-70
2022/03/31 07:38:08;;;;;;;13.87;8.57;;;7.00;99.90;;;;;;5021418;28;20733;-69
2022/03/31 07:40:37;;;;;;;21.40;9.07;;;7.10;99.90;;;;;;5014250;28;21058;-70
2022/03/31 07:43:04;;;;;;;15.87;9.07;;;7.10;99.90;;;;;;5028228;28;20467;-69
2022/03/31 07:45:31;;;;;;;22.77;9.20;;;7.10;99.90;;;;;;5029626;28;21048;-70
2022/03/31 07:47:56;;;;;;;16.57;8.47;;;7.10;99.90;;;;;;5026950;28;20475;-71
2022/03/31 07:50:22;;;;;;;18.33;9.87;;;7.10;99.90;;;;;;5029104;28;20463;-70
2022/03/31 07:52:49;;;;;;;13.27;8.27;;;7.10;99.90;;;;;;5033310;28;20231;-68
2022/03/31 07:55:16;;;;;;;17.70;9.70;;;7.10;99.90;;;;;;5035825;28;20226;-70
2022/03/31 07:57:43;;;;;;;17.27;8.47;;;7.10;99.90;;;;;;5047718;28;20572;-68
2022/03/31 08:00:11;;;;;;;16.23;9.00;;;7.10;99.90;;;;;;5002285;28;20466;-68
2022/03/31 08:02:41;;;;;;;13.70;8.43;;;7.10;99.90;;;;;;5032760;28;21010;-69
2022/03/31 08:05:09;;;;;;;17.17;9.40;;;7.10;99.90;;;;;;5022192;28;20993;-70
2022/03/31 08:07:35;;;;;;;14.10;8.83;;;7.10;99.90;;;;;;5026974;28;21001;-70
2022/03/31 08:10:02;;;;;;;14.47;8.40;;;7.10;99.90;;;;;;5023081;28;20508;-70
2022/03/31 08:12:28;;;;;;;17.37;9.53;;;7.10;99.90;;;;;;5037393;28;20451;-70
2022/03/31 08:14:53;;;;;;;17.00;9.17;;;7.20;99.90;;;;;;5031783;28;20971;-70
2022/03/31 08:17:20;;;;;;;17.77;9.23;;;7.20;99.90;;;;;;5030327;28;20299;-70
2022/03/31 08:19:47;;;;;;;13.80;7.33;;;7.20;99.90;;;;;;5029449;28;20216;-70
2022/03/31 08:22:12;;;;;;;16.97;9.63;;;7.20;99.90;;;;;;5036352;28;20533;-69
2022/03/31 08:24:38;;;;;;;12.60;7.83;;;7.20;99.90;;;;;;5036402;28;20546;-69
2022/03/31 08:27:05;;;;;;;18.27;8.90;;;7.20;99.90;;;;;;5033055;28;20232;-69
2022/03/31 08:29:31;;;;;;;14.67;8.80;;;7.20;99.90;;;;;;5032383;28;20221;-70
2022/03/31 08:31:57;;;;;;;18.00;9.30;;;7.20;99.90;;;;;;5032330;28;20463;-69
2022/03/31 08:34:23;;;;;;;17.23;9.30;;;7.20;99.90;;;;;;5029210;28;20865;-69
2022/03/31 08:36:49;;;;;;;14.83;7.90;;;7.30;99.90;;;;;;5044441;28;20447;-69
2022/03/31 08:39:15;;;;;;;17.83;8.73;;;7.30;99.90;;;;;;5038393;28;20618;-70
2022/03/31 08:41:43;;;;;;;16.30;8.47;;;7.30;99.90;;;;;;5026720;28;20244;-68
2022/03/31 08:44:15;;;;;;;18.47;9.97;;;7.30;99.90;;;;;;5034735;28;20460;-69
2022/03/31 08:46:41;;;;;;;22.93;10.97;;;7.30;99.90;;;;;;5028923;28;20554;-68
2022/03/31 08:49:09;;;;;;;15.33;9.27;;;7.30;99.90;;;;;;5051709;28;20467;-69
2022/03/31 08:51:34;;;;;;;18.97;10.90;;;7.30;99.90;;;;;;5036810;28;20450;-70
2022/03/31 08:54:01;;;;;;;16.10;9.07;;;7.30;99.90;;;;;;5036933;28;20458;-70
2022/03/31 08:56:27;;;;;;;16.90;9.83;;;7.30;99.90;;;;;;5029121;28;20230;-70
2022/03/31 08:58:52;;;;;;;19.47;9.43;;;7.30;99.90;;;;;;5028138;28;20954;-68
2022/03/31 09:01:18;;;;;;;17.10;9.17;;;7.30;99.90;;;;;;5036422;28;20238;-69
2022/03/31 09:03:44;;;;;;;15.93;9.90;;;7.30;99.90;;;;;;5024726;28;20300;-69
2022/03/31 09:06:23;;;;;;;15.00;9.20;;;7.30;99.90;;;;;;5035599;28;20232;-69
2022/03/31 09:08:55;;;;;;;17.57;9.10;;;7.40;99.90;;;;;;5027290;28;20990;-68
2022/03/31 09:11:32;;;;;;;14.83;9.53;;;7.40;99.90;;;;;;5023022;28;20455;-70
2022/03/31 09:14:00;;;;;;;15.30;8.70;;;7.50;99.90;;;;;;5024633;28;20463;-70
2022/03/31 09:16:38;;;;;;;19.33;10.00;;;7.50;99.90;;;;;;5024105;28;20471;-70
2022/03/31 09:19:12;;;;;;;21.07;11.00;;;7.50;99.90;;;;;;5037796;28;20461;-70
2022/03/31 09:21:54;;;;;;;20.13;10.20;;;7.60;99.90;;;;;;5047614;28;20454;-70
2022/03/31 09:24:24;;;;;;;15.83;9.70;;;7.60;99.90;;;;;;5043530;28;20458;-68
2022/03/31 09:26:51;;;;;;;15.13;9.20;;;7.60;99.90;;;;;;5029063;28;20498;-68
2022/03/31 09:29:20;;;;;;;17.70;9.20;;;7.60;99.90;;;;;;5028624;28;20982;-69
2022/03/31 09:31:51;;;;;;;20.40;9.70;;;7.70;99.90;;;;;;5030469;28;20458;-69
2022/03/31 09:34:18;;;;;;;16.50;9.60;;;7.70;99.90;;;;;;5039876;28;20474;-68
2022/03/31 09:36:51;;;;;;;19.90;10.00;;;7.70;99.90;;;;;;5024540;28;20458;-69
2022/03/31 09:39:19;;;;;;;18.70;9.50;;;7.70;99.90;;;;;;5028270;28;20466;-69
2022/03/31 09:41:53;;;;;;;17.63;10.20;;;7.70;99.90;;;;;;5026109;28;20451;-69
2022/03/31 09:44:23;;;;;;;18.37;10.30;;;7.70;99.90;;;;;;5019577;28;20465;-69
2022/03/31 09:46:50;;;;;;;23.80;9.97;;;7.70;99.90;;;;;;5026576;28;20479;-70
2022/03/31 09:49:25;;;;;;;16.33;9.27;;;7.70;99.90;;;;;;5030604;28;20502;-70
2022/03/31 09:51:54;;;;;;;18.00;8.43;;;7.80;99.90;;;;;;5032927;28;20464;-71
2022/03/31 09:54:26;;;;;;;17.87;9.93;;;7.80;99.90;;;;;;5023744;28;20503;-68
2022/03/31 09:56:52;;;;;;;18.07;10.07;;;7.80;99.90;;;;;;5024801;28;20452;-68
2022/03/31 09:59:18;;;;;;;13.97;9.80;;;7.80;99.90;;;;;;5033551;28;21037;-68
2022/03/31 10:01:45;;;;;;;23.40;10.93;;;7.80;99.90;;;;;;5026385;28;20486;-69
2022/03/31 10:04:13;;;;;;;19.00;10.27;;;7.90;99.90;;;;;;5037560;28;20240;-69
2022/03/31 10:06:41;;;;;;;18.40;10.77;;;7.90;99.90;;;;;;5025122;28;20818;-69
2022/03/31 10:09:08;;;;;;;17.93;9.97;;;7.90;99.90;;;;;;5026631;28;20526;-69
2022/03/31 10:11:39;;;;;;;18.40;8.70;;;7.90;99.90;;;;;;5023869;28;20459;-71
2022/03/31 10:14:35;;;;;;;17.50;9.70;;;8.00;99.90;;;;;;5022422;28;20474;-70
2022/03/31 10:17:08;;;;;;;18.90;10.50;;;8.00;99.90;;;;;;5045158;28;20469;-70
2022/03/31 10:19:44;;;;;;;16.30;9.57;;;8.10;99.90;;;;;;5014873;28;20530;-70
2022/03/31 10:25:04;;;;;;;17.27;9.70;;;8.10;99.90;;;;;;5036528;28;20452;-70
2022/03/31 10:27:31;;;;;;;15.67;9.33;;;8.20;99.90;;;;;;5034755;28;20464;-69
2022/03/31 10:30:26;;;;;;;20.60;10.87;;;8.20;99.90;;;;;;5022809;28;20508;-68
2022/03/31 10:32:59;;;;;;;17.33;10.60;;;8.20;99.90;;;;;;5031538;28;20457;-69
2022/03/31 10:35:37;;;;;;;17.17;10.13;;;8.20;99.90;;;;;;5025610;28;20462;-71
2022/03/31 10:38:17;;;;;;;17.37;10.07;;;8.30;99.90;;;;;;5026212;28;20455;-70
2022/03/31 10:40:45;;;;;;;16.93;9.57;;;8.30;99.90;;;;;;5028058;28;20522;-70
2022/03/31 10:43:23;;;;;;;21.33;11.17;;;8.30;99.90;;;;;;5029519;28;20463;-70
2022/03/31 10:45:49;;;;;;;16.20;10.17;;;8.40;99.90;;;;;;5029467;28;20573;-69
2022/03/31 10:48:23;;;;;;;15.07;10.10;;;8.40;99.90;;;;;;5030647;28;20451;-70
2022/03/31 10:51:04;;;;;;;20.13;10.80;;;8.40;99.90;;;;;;5022813;28;20457;-69
2022/03/31 10:53:31;;;;;;;21.70;10.30;;;8.50;99.90;;;;;;5012195;28;20455;-69
2022/03/31 10:55:57;;;;;;;17.83;10.43;;;8.50;99.90;;;;;;5031001;28;20450;-69
2022/03/31 10:58:28;;;;;;;17.30;10.60;;;8.50;99.90;;;;;;5034702;28;20452;-71
2022/03/31 11:01:01;;;;;;;19.70;10.33;;;8.50;99.90;;;;;;5025242;28;20878;-71
2022/03/31 11:03:28;;;;;;;18.70;10.10;;;8.60;99.90;;;;;;5028198;28;20487;-69
2022/03/31 11:06:01;;;;;;;22.83;12.70;;;8.60;99.90;;;;;;5032870;28;20826;-70
2022/03/31 11:08:26;;;;;;;17.30;10.30;;;8.60;99.90;;;;;;5032001;28;20543;-71
2022/03/31 11:10:54;;;;;;;18.53;11.50;;;8.60;99.90;;;;;;5029833;28;20487;-70
2022/03/31 11:13:34;;;;;;;23.13;11.83;;;8.70;99.90;;;;;;5034117;28;20422;-70
2022/03/31 11:16:01;;;;;;;21.73;11.20;;;8.70;99.90;;;;;;5033097;28;20583;-69
2022/03/31 11:18:27;;;;;;;22.37;11.03;;;8.70;99.90;;;;;;5019990;28;20528;-70
2022/03/31 11:21:01;;;;;;;24.60;12.37;;;8.70;99.90;;;;;;5024489;28;20458;-71
2022/03/31 11:23:29;;;;;;;19.53;11.07;;;8.80;99.90;;;;;;5027592;28;20446;-70
2022/03/31 11:25:55;;;;;;;16.40;10.10;;;8.70;99.90;;;;;;5030349;28;20463;-69
2022/03/31 11:28:22;;;;;;;21.73;11.00;;;8.80;99.90;;;;;;5031963;28;20464;-70
2022/03/31 11:30:49;;;;;;;21.40;11.63;;;8.80;99.90;;;;;;5017109;28;20468;-68
2022/03/31 11:33:15;;;;;;;19.67;11.23;;;8.80;99.90;;;;;;5028277;28;20451;-67
2022/03/31 11:35:43;;;;;;;26.73;12.03;;;8.80;99.90;;;;;;5030943;28;20956;-68
2022/03/31 11:38:17;;;;;;;24.07;12.30;;;8.90;99.90;;;;;;5021120;28;20465;-71
2022/03/31 11:40:46;;;;;;;18.30;10.40;;;8.90;99.90;;;;;;5029397;28;21051;-70
2022/03/31 11:43:14;;;;;;;18.23;10.97;;;8.90;99.90;;;;;;5031771;28;20566;-70
2022/03/31 11:45:45;;;;;;;17.47;10.17;;;8.90;99.90;;;;;;5032695;28;20470;-70
2022/03/31 11:48:20;;;;;;;15.87;10.00;;;9.00;99.90;;;;;;5027469;28;20551;-69
2022/03/31 11:50:56;;;;;;;18.00;11.73;;;9.00;99.90;;;;;;5044690;28;20505;-70
2022/03/31 11:53:31;;;;;;;22.30;12.20;;;9.00;99.90;;;;;;5037348;28;20458;-70
2022/03/31 11:56:26;;;;;;;15.97;10.30;;;9.00;99.90;;;;;;5028421;28;20515;-70
2022/03/31 11:58:52;;;;;;;22.33;11.70;;;9.10;99.90;;;;;;5024294;28;20907;-70
2022/03/31 12:01:45;;;;;;;15.87;10.30;;;9.10;99.90;;;;;;5034424;28;20853;-68
2022/03/31 12:04:26;;;;;;;16.77;10.13;;;9.10;99.90;;;;;;5027826;28;20445;-68
2022/03/31 12:06:54;;;;;;;17.03;9.67;;;9.10;99.90;;;;;;5026415;28;20488;-70
2022/03/31 12:09:20;;;;;;;17.53;10.63;;;9.10;99.90;;;;;;5028289;28;20823;-70
2022/03/31 12:11:47;;;;;;;15.23;9.13;;;9.10;99.90;;;;;;5024345;28;20462;-69
2022/03/31 12:14:13;;;;;;;20.93;11.40;;;9.20;99.90;;;;;;5025601;28;20459;-70
2022/03/31 12:16:52;;;;;;;21.57;11.20;;;9.20;99.90;;;;;;5024722;28;21059;-71
2022/03/31 12:19:19;;;;;;;19.53;11.37;;;9.20;99.90;;;;;;5018618;28;20330;-68
2022/03/31 12:21:54;;;;;;;16.73;9.63;;;9.20;99.90;;;;;;5030011;28;20452;-71
2022/03/31 12:24:21;;;;;;;16.03;9.47;;;9.20;99.90;;;;;;5019086;28;20473;-68
2022/03/31 12:26:56;;;;;;;18.03;11.23;;;9.20;99.90;;;;;;5030394;28;20481;-71
2022/03/31 12:29:23;;;;;;;19.43;10.50;;;9.20;99.90;;;;;;5029812;28;20457;-70
2022/03/31 12:32:06;;;;;;;19.03;11.27;;;9.30;99.90;;;;;;5030178;28;20451;-69
2022/03/31 12:34:34;;;;;;;21.33;11.40;;;9.30;99.90;;;;;;5013349;28;20843;-67
2022/03/31 12:37:00;;;;;;;19.47;11.60;;;9.30;99.90;;;;;;5032812;28;20466;-70
2022/03/31 12:39:27;;;;;;;14.63;9.70;;;9.30;99.90;;;;;;5021998;28;20459;-70
2022/03/31 12:41:55;;;;;;;19.53;10.93;;;9.40;99.90;;;;;;5041891;28;20468;-70
2022/03/31 12:44:23;;;;;;;16.30;9.83;;;9.40;99.90;;;;;;5000883;28;20476;-70
2022/03/31 12:47:00;;;;;;;14.20;9.37;;;9.40;99.90;;;;;;5027610;28;20486;-67
2022/03/31 12:49:38;;;;;;;17.43;9.60;;;9.40;99.90;;;;;;5027865;28;20462;-70
2022/03/31 12:52:11;;;;;;;21.53;11.23;;;9.50;99.90;;;;;;5031633;28;20459;-69